• Join FlightAware (Why Join?)
  • Login
  • US Flag 
11:31AM EDT


 

Airport Tracker/Info


-or-


 

Live Flight TrackerFlight Track Log ✈ N221WR ✈ 28-Dec-2013 ✈ KSLC - KMCO

Flight Track Log - Related Links

Times and Time Zones

All times are in EST time to prevent confusion due to time zone crossing. See the N221WR flight status page for this flight to view local times or setup timezone preferences in your user account.

Time Position Orientation Groundspeed Altitude Reporting Facility
EST Latitude Longitude Course Direction KTS MPH feet Rate Location/Type
02:07PM 40.8147 -111.9653 353° North 250 288 5,300  Level Salt Lake Center
02:08PM 40.8364 -111.9689 353° North 205 236 6,500 1,740 Climbing Salt Lake Center
02:09PM 40.8947 -111.9800 352° North 215 247 8,000 1,980 Climbing Salt Lake Center
02:10PM 40.9706 -111.9958 351° North 273 314 10,700 1,980 Climbing Salt Lake Center
02:11PM 41.0317 -111.9200 43° Northeast 340 391 12,200 2,460 Climbing Salt Lake Center
02:12PM 40.9794 -111.7922 118° Southeast 364 419 15,800 2,640 Climbing Salt Lake Center
02:13PM 40.9028 -111.6975 137° Southeast 383 441 17,700 1,740 Climbing Salt Lake Center
02:14PM 40.8214 -111.5953 136° Southeast 409 471 19,500 2,160 Climbing Salt Lake Center
02:15PM 40.7861 -111.4422 107° East 440 506 22,200 2,820 Climbing Salt Lake Center
02:16PM 40.7508 -111.2519 104° East 447 514 25,400 2,700 Climbing Salt Lake Center
02:17PM 40.7200 -111.0886 104° East 457 526 27,800 2,220 Climbing Salt Lake Center
02:18PM 40.6875 -110.9181 104° East 474 545 30,000 2,460 Climbing Salt Lake Center
02:19PM 40.6539 -110.7469 104° East 482 555 33,000 2,700 Climbing Salt Lake Center
02:20PM 40.6167 -110.5622 105° East 466 536 35,700 1,980 Climbing Salt Lake Center
02:21PM 40.5861 -110.4050 104° East 465 535 37,200 1,440 Climbing Salt Lake Center
02:22PM 40.5508 -110.2306 105° East 464 534 38,700 1,140 Climbing Salt Lake Center
02:23PM 40.5214 -110.0736 104° East 463 533 39,600 840 Climbing Salt Lake Center
02:24PM 40.4836 -109.8903 105° East 466 536 40,500 660 Climbing Salt Lake Center
02:25PM 40.4514 -109.7303 105° East 470 541 41,000 240 Climbing Salt Lake Center
02:26PM 40.4111 -109.5397 105° East 483 556 41,000  Level Salt Lake Center
02:27PM 40.3772 -109.3719 105° East 494 568 41,000  Level Salt Lake Center
02:28PM 40.3356 -109.1747 105° East 500 575 41,000  Level Salt Lake Center
02:29PM 40.3014 -109.0056 105° East 500 575 41,000  Level Salt Lake Center
02:30PM 40.2597 -108.8119 106° East 496 571 41,000  Level Salt Lake Center
02:31PM 40.2242 -108.6444 105° East 496 571 41,000  Level Salt Lake Center
02:32PM 40.1892 -108.4769 105° East 497 572 41,000  Level Salt Lake Center
02:33PM 40.1453 -108.2814 106° East 500 575 41,000  Level Salt Lake Center
02:34PM 40.1089 -108.1136 106° East 500 575 41,000  Level Salt Lake Center
02:35PM 40.0672 -107.9189 106° East 497 572 41,000  Level Salt Lake Center
02:37PM 40.0261 -107.6928 103° East 496 571 41,000 240 Level Denver Center
02:38PM 39.9911 -107.4975 103° East 494 568 41,600 600 Climbing Denver Center
02:39PM 39.9603 -107.3325 104° East 491 565 42,300 660 Climbing Denver Center
02:40PM 39.9278 -107.1558 103° East 492 566 43,000 300 Climbing Denver Center
02:41PM 39.9014 -107.0150 104° East 494 568 43,000  Level Denver Center
02:42PM 39.8614 -106.8011 104° East 501 577 43,000  Level Denver Center
02:43PM 39.8292 -106.6233 103° East 500 575 43,000  Level Denver Center
02:44PM 39.7944 -106.4422 104° East 499 574 43,000 300 Level Denver Center
02:45PM 39.7544 -106.2336 104° East 497 572 43,700 480 Climbing Denver Center
02:46PM 39.7208 -106.0617 104° East 494 568 44,100 480 Climbing Denver Center
02:47PM 39.6869 -105.8889 104° East 496 571 44,700 420 Climbing Denver Center
02:48PM 39.6533 -105.7178 104° East 494 568 45,000 120 Climbing Denver Center
02:49PM 39.6192 -105.5483 105° East 486 559 45,000  Level Denver Center
02:50PM 39.5844 -105.3781 105° East 489 563 45,000  Level Denver Center
02:51PM 39.5425 -105.1747 105° East 489 563 45,000  Level Denver Center
02:52PM 39.5075 -105.0033 105° East 492 566 45,000  Level Denver Center
02:53PM 39.4719 -104.8350 105° East 494 568 45,000  Level Denver Center
02:54PM 39.4364 -104.6669 105° East 499 574 45,000  Level Denver Center
02:55PM 39.3931 -104.4619 105° East 502 578 45,000  Level Denver Center
02:56PM 39.3569 -104.2889 105° East 502 578 45,000  Level Denver Center
02:58PM 39.3189 -104.1144 106° East 507 583 45,000  Level Denver Center
02:59PM 39.2822 -103.9436 105° East 497 572 45,000  Level Denver Center
03:00PM 39.2447 -103.7694 105° East 504 580 45,000 -60 Level Denver Center
03:01PM 39.1992 -103.5608 106° East 507 583 44,900  Descending Denver Center
03:02PM 39.1608 -103.3883 106° East 504 580 45,000  Climbing Denver Center
03:03PM 39.1225 -103.2153 106° East 502 578 45,000 -60 Level Denver Center
03:04PM 39.0847 -103.0453 106° East 497 572 44,900  Descending Denver Center
03:05PM 39.0475 -102.8822 106° East 481 554 45,000  Climbing Denver Center
03:06PM 39.0072 -102.7094 107° East 482 555 45,000  Level Denver Center
03:07PM 38.9653 -102.5214 106° East 488 562 45,000  Level Denver Center
03:08PM 38.9286 -102.3617 106° East 489 563 45,000  Level Denver Center
03:09PM 38.8839 -102.1731 107° East 494 568 45,000  Level Denver Center
03:10PM 38.8461 -102.0117 107° East 494 568 45,000  Level Denver Center
03:11PM 38.8008 -101.8231 107° East 495 570 45,000  Level Denver Center
03:12PM 38.7631 -101.6608 107° East 496 571 45,000  Level Denver Center
03:13PM 38.7175 -101.4722 107° East 495 570 45,000  Level Denver Center
03:14PM 38.6786 -101.3106 107° East 495 570 45,000  Level Denver Center
03:15PM 38.6333 -101.1225 107° East 495 570 45,000  Level Denver Center
03:16PM 38.5936 -100.9606 107° East 496 571 45,000  Level Denver Center
03:17PM 38.5403 -100.7450 107° East 494 568 45,000  Level Kansas City Center
03:18PM 38.5003 -100.5872 108° East 490 564 45,000  Level Kansas City Center
03:19PM 38.4544 -100.4025 108° East 487 560 45,000  Level Kansas City Center
03:20PM 38.4128 -100.2422 108° East 492 566 45,000  Level Kansas City Center
03:21PM 38.3664 -100.0578 108° East 490 564 45,000  Level Kansas City Center
03:23PM 38.3264 -99.9000 108° East 488 562 45,000  Level Kansas City Center
03:24PM 38.2847 -99.7425 109° East 489 563 45,000  Level Kansas City Center
03:25PM 38.2361 -99.5556 108° East 495 570 45,000  Level Kansas City Center
03:26PM 38.1936 -99.3981 109° East 491 565 45,000  Level Kansas City Center
03:27PM 38.1519 -99.2342 108° East 489 563 45,000  Level Kansas City Center
03:28PM 38.1081 -99.0703 109° East 489 563 45,000  Level Kansas City Center
03:29PM 38.0678 -98.8994 107° East 492 566 45,000  Level Kansas City Center
03:30PM 38.0225 -98.7078 107° East 486 559 45,000  Level Kansas City Center
03:31PM 37.9828 -98.5439 107° East 486 559 45,000  Level Kansas City Center
03:32PM 37.9444 -98.3803 107° East 487 560 45,000  Level Kansas City Center
03:33PM 37.9042 -98.2197 108° East 483 556 45,000  Level Kansas City Center
03:34PM 37.8622 -98.0531 108° East 483 556 45,000  Level Kansas City Center
03:35PM 37.8197 -97.8889 108° East 486 559 45,000  Level Kansas City Center
03:36PM 37.7803 -97.7267 107° East 485 558 45,000  Level Kansas City Center
03:37PM 37.7381 -97.5653 108° East 483 556 45,000  Level Kansas City Center
03:38PM 37.6733 -97.4061 117° Southeast 475 547 45,000  Level Kansas City Center
03:39PM 37.6125 -97.2594 118° Southeast 475 547 45,000  Level Kansas City Center
03:40PM 37.5519 -97.1147 118° Southeast 470 541 45,000  Level Kansas City Center
03:41PM 37.4800 -96.9389 117° Southeast 469 540 45,000  Level Kansas City Center
03:42PM 37.4186 -96.7939 118° Southeast 471 542 45,000  Level Kansas City Center
03:43PM 37.3583 -96.6500 118° Southeast 467 537 45,000  Level Kansas City Center
03:44PM 37.2978 -96.5039 117° Southeast 470 541 45,000  Level Kansas City Center
03:45PM 37.2294 -96.3442 118° Southeast 473 544 45,000  Level Kansas City Center
03:46PM 37.1667 -96.1983 118° Southeast 474 545 45,000  Level Kansas City Center
03:47PM 37.1031 -96.0528 119° Southeast 474 545 45,000  Level Kansas City Center
03:48PM 37.0414 -95.9050 118° Southeast 476 548 45,000 -60 Level Kansas City Center
03:49PM 36.9764 -95.7603 119° Southeast 475 547 44,900  Descending Kansas City Center
03:50PM 36.9128 -95.6133 118° Southeast 476 548 45,000  Climbing Kansas City Center
03:51PM 36.8361 -95.4386 119° Southeast 474 545 45,000  Level Kansas City Center
03:52PM 36.7717 -95.2925 119° Southeast 474 545 45,000  Level Kansas City Center
03:53PM 36.7069 -95.1447 119° Southeast 478 550 45,000  Level Kansas City Center
03:54PM 36.6403 -94.9964 119° Southeast 482 555 45,000  Level Kansas City Center
03:56PM 36.5761 -94.8508 119° Southeast 478 550 45,000  Level Kansas City Center
03:57PM 36.5106 -94.7081 120° Southeast 474 545 45,000  Level Kansas City Center
03:58PM 36.4475 -94.5653 119° Southeast 471 542 45,000  Level Kansas City Center
03:59PM 36.3836 -94.4217 119° Southeast 471 542 45,000  Level Kansas City Center
04:00PM 36.3186 -94.2786 119° Southeast 473 544 45,000  Level Kansas City Center
04:01PM 36.2531 -94.1358 120° Southeast 474 545 45,000  Level Kansas City Center
04:02PM 36.1747 -93.9636 119° Southeast 479 551 45,000  Level Kansas City Center
04:03PM 36.1117 -93.8189 118° Southeast 479 551 45,000  Level Kansas City Center
04:04PM 36.0458 -93.6783 120° Southeast 476 548 45,000  Level Kansas City Center
04:05PM 35.9808 -93.5369 120° Southeast 474 545 45,000  Level Kansas City Center
04:06PM 35.9147 -93.3958 120° Southeast 474 545 45,000  Level Kansas City Center
04:07PM 35.8347 -93.2244 120° Southeast 476 548 45,000  Level Memphis Center
04:08PM 35.7553 -93.0542 120° Southeast 477 549 45,000  Level Memphis Center
04:09PM 35.6886 -92.9117 120° Southeast 476 548 45,000  Level Memphis Center
04:10PM 35.6208 -92.7692 120° Southeast 477 549 45,000  Level Memphis Center
04:11PM 35.5536 -92.6261 120° Southeast 477 549 45,000  Level Memphis Center
04:12PM 35.4858 -92.4842 120° Southeast 478 550 45,000  Level Memphis Center
04:13PM 35.4178 -92.3433 121° Southeast 479 551 45,000  Level Memphis Center
04:14PM 35.3500 -92.2017 120° Southeast 480 552 45,000  Level Memphis Center
04:15PM 35.2822 -92.0603 120° Southeast 481 554 45,000  Level Memphis Center
04:16PM 35.2150 -91.9186 120° Southeast 482 555 45,000  Level Memphis Center
04:17PM 35.1319 -91.7511 121° Southeast 481 554 45,000  Level Memphis Center
04:18PM 35.0642 -91.6092 120° Southeast 484 557 45,000  Level Memphis Center
04:19PM 34.9950 -91.4689 121° Southeast 483 556 45,000  Level Memphis Center
04:20PM 34.9244 -91.3231 121° Southeast 484 557 45,000  Level Memphis Center
04:21PM 34.8539 -91.1811 121° Southeast 485 558 45,000  Level Memphis Center
04:23PM 34.7844 -91.0400 121° Southeast 483 556 45,000  Level Memphis Center
04:24PM 34.7144 -90.8986 121° Southeast 485 558 45,000  Level Memphis Center
04:25PM 34.6433 -90.7583 122° Southeast 485 558 45,000  Level Memphis Center
04:26PM 34.5744 -90.6194 121° Southeast 480 552 45,000  Level Memphis Center
04:27PM 34.5050 -90.4831 122° Southeast 475 547 45,000  Level Memphis Center
04:28PM 34.4253 -90.3236 121° Southeast 473 544 45,000  Level Memphis Center
04:29PM 34.3572 -90.1908 122° Southeast 467 537 45,000  Level Memphis Center
04:30PM 34.2886 -90.0567 122° Southeast 467 537 45,000  Level Memphis Center
04:31PM 34.2203 -89.9239 122° Southeast 464 534 45,000  Level Memphis Center
04:32PM 34.1522 -89.7897 121° Southeast 465 535 45,000  Level Memphis Center
04:33PM 34.0831 -89.6558 122° Southeast 467 537 45,000  Level Memphis Center
04:34PM 34.0139 -89.5203 122° Southeast 469 540 45,000  Level Memphis Center
04:35PM 33.9439 -89.3856 122° Southeast 472 543 45,000  Level Memphis Center
04:36PM 33.8631 -89.2300 122° Southeast 468 539 45,000  Level Memphis Center
04:37PM 33.7967 -89.1028 122° Southeast 469 540 45,000  Level Memphis Center
04:38PM 33.7272 -88.9719 123° Southeast 467 537 45,000  Level Memphis Center
04:39PM 33.6581 -88.8397 122° Southeast 467 537 45,000  Level Memphis Center
04:40PM 33.5864 -88.7044 122° Southeast 467 537 45,000  Level Memphis Center
04:41PM 33.5181 -88.5756 122° Southeast 470 541 45,000  Level Memphis Center
04:42PM 33.4333 -88.4181 123° Southeast 471 542 45,000  Level Memphis Center
04:43PM 33.3597 -88.2892 124° Southeast 471 542 45,000  Level Memphis Center
04:44PM 33.2847 -88.1556 124° Southeast 473 544 45,000  Level Memphis Center
04:45PM 33.2100 -88.0236 124° Southeast 478 550 45,000  Level Memphis Center
04:46PM 33.1353 -87.8931 124° Southeast 480 552 45,000  Level Memphis Center
04:47PM 33.0608 -87.7617 124° Southeast 479 551 45,000  Level Memphis Center
04:48PM 32.9853 -87.6297 124° Southeast 483 556 45,000  Level Memphis Center
04:49PM 32.9306 -87.5358 125° Southeast 481 554 45,000  Level Atlanta Center
04:50PM 32.8550 -87.3992 123° Southeast 482 555 45,000  Level Atlanta Center
04:51PM 32.7792 -87.2703 125° Southeast 482 555 45,000  Level Atlanta Center
04:52PM 32.6992 -87.1367 125° Southeast 487 560 45,000  Level Atlanta Center
04:53PM 32.6272 -87.0033 123° Southeast 482 555 45,000  Level Atlanta Center
04:54PM 32.5489 -86.8725 125° Southeast 488 562 45,000  Level Atlanta Center
04:55PM 32.4728 -86.7397 124° Southeast 483 556 45,000  Level Atlanta Center
04:56PM 32.3961 -86.6119 125° Southeast 483 556 45,000  Level Atlanta Center
04:57PM 32.3194 -86.4769 124° Southeast 483 556 45,000 -60 Level Atlanta Center
04:58PM 32.2386 -86.3472 126° Southeast 488 562 44,900 -60 Descending Atlanta Center
04:59PM 32.1742 -86.2056 118° Southeast 488 562 44,900  Level Atlanta Center
05:00PM 32.0994 -86.0689 123° Southeast 483 556 45,000  Climbing Atlanta Center
05:02PM 31.9431 -85.7153 117° Southeast 491 565 44,900  Descending Jacksonville Center
05:03PM 31.8772 -85.5764 119° Southeast 491 565 45,000  Climbing Jacksonville Center
05:04PM 31.8153 -85.4375 118° Southeast 491 565 44,900  Descending Jacksonville Center
05:05PM 31.7492 -85.2989 119° Southeast 491 565 45,000  Climbing Jacksonville Center
05:06PM 31.6847 -85.1631 119° Southeast 491 565 45,000  Level Jacksonville Center
05:07PM 31.6306 -85.0422 118° Southeast 477 549 45,000  Level Jacksonville Center
05:08PM 31.5639 -84.9042 120° Southeast 477 549 45,000  Level Jacksonville Center
05:09PM 31.4972 -84.7664 120° Southeast 477 549 45,000  Level Jacksonville Center
05:10PM 31.4261 -84.6286 121° Southeast 489 563 45,000  Level Jacksonville Center
05:11PM 31.3419 -84.5028 128° Southeast 489 563 45,000  Level Jacksonville Center
05:12PM 31.2581 -84.3750 128° Southeast 489 563 45,000 -480 Level Jacksonville Center
05:13PM 31.1758 -84.2500 128° Southeast 489 563 44,100 -1,320 Descending Jacksonville Center
05:14PM 31.0958 -84.1275 127° Southeast 489 563 42,400 -1,860 Descending Jacksonville Center
05:15PM 31.0175 -84.0078 127° Southeast 484 557 40,400 -2,100 Descending Jacksonville Center
05:16PM 30.9203 -83.9000 136° Southeast 473 544 38,300 -2,100 Descending Jacksonville Center
05:17PM 30.8186 -83.8142 144° Southeast 462 532 36,200 -2,100 Descending Jacksonville Center
05:18PM 30.7275 -83.7069 135° Southeast 467 537 34,100 -2,100 Descending Jacksonville Center
05:19PM 30.6469 -83.5614 123° Southeast 477 549 32,000 -2,100 Descending Jacksonville Center
05:20PM 30.5661 -83.4233 124° Southeast 485 558 30,000 -1,920 Descending Jacksonville Center
05:21PM 30.4850 -83.2881 125° Southeast 503 579 28,200 -1,260 Descending Jacksonville Center
05:22PM 30.4125 -83.1647 124° Southeast 503 579 27,500 -720 Descending Jacksonville Center
05:23PM 30.3394 -83.0467 126° Southeast 470 541 26,800 -660 Descending Jacksonville Center
05:24PM 30.2644 -82.9214 125° Southeast 465 535 26,200 -600 Descending Jacksonville Center
05:25PM 30.1850 -82.7939 126° Southeast 477 549 25,600 -600 Descending Jacksonville Center
05:26PM 30.1078 -82.6669 125° Southeast 484 557 25,100 -300 Descending Jacksonville Center
05:27PM 30.0364 -82.5567 127° Southeast 484 557 25,000 -60 Descending Jacksonville Center
05:28PM 29.9381 -82.4394 134° Southeast 459 528 25,000 -420 Level Jacksonville Center
05:29PM 29.8228 -82.3803 156° South 449 517 24,200 -1,380 Descending Jacksonville Center
05:30PM 29.7203 -82.3281 156° South 430 495 22,300 -1,800 Descending Jacksonville Center
05:31PM 29.6303 -82.2881 159° South 409 471 20,700 -1,620 Descending Jacksonville Center
05:32PM 29.5239 -82.2506 163° South 402 463 19,100 -1,500 Descending Jacksonville Center
05:33PM 29.4108 -82.2347 173° South 402 463 17,800 -1,440 Descending Jacksonville Center
05:34PM 29.3128 -82.2161 171° South 388 447 16,300 -1,500 Descending Jacksonville Center
05:35PM 29.2269 -82.1739 157° South 355 409 14,900 -1,320 Descending Jacksonville Center
05:36PM 29.1472 -82.1150 147° Southeast 335 386 13,700 -1,200 Descending Jacksonville Center
05:37PM 29.0614 -82.0539 148° Southeast 348 400 12,500 -1,140 Descending Jacksonville Center
05:38PM 28.9794 -81.9978 149° Southeast 359 413 11,500 -720 Descending Jacksonville Center
05:39PM 28.8978 -81.9392 148° Southeast 338 389 11,100 -600 Descending Jacksonville Center
05:40PM 28.8594 -81.8614 119° Southeast 285 328 10,300 -1,020 Descending Jacksonville Center
05:41PM 28.8333 -81.7833 111° Southeast 276 318 9,100 -660 Descending Orlando TRACON
05:42PM 28.8167 -81.7000 103° East 272 313 9,100 -60 Level Orlando TRACON
05:43PM 28.8000 -81.6167 103° East 228 262 9,000 -600 Descending Orlando TRACON
05:44PM 28.7833 -81.5500 106° East 240 276 7,900 -1,140 Descending Orlando TRACON
05:45PM 28.7667 -81.4833 106° East 242 278 6,900 -1,080 Descending Orlando TRACON
05:46PM 28.7500 -81.4167 106° East 227 261 5,900 -1,140 Descending Orlando TRACON
05:47PM 28.7167 -81.3500 120° Southeast 210 242 4,600 -1,200 Descending Orlando TRACON
05:48PM 28.6667 -81.3333 164° South 210 242 3,500 -780 Descending Orlando TRACON
05:49PM 28.6167 -81.3333 180° South 188 216 3,100 -540 Descending Orlando TRACON
05:50PM 28.5667 -81.3333 180° South 150 173 2,400 -720 Descending Orlando TRACON
05:51PM 28.5333 -81.3333 180° South 140 161 1,700 -720 Descending Orlando TRACON
05:52PM 28.5000 -81.3333 180° South 121 139 1,100 -660 Descending Orlando TRACON
05:53PM 28.4667 -81.3333 180° South 128 147 400 -720 Descending Orlando TRACON
05:55PM 28.4294 -81.3090 180° South  Level Estimated
06:02PM 28.4294 -81.3090 24° Northeast  Level Estimated
06:03PM 28.4294 -81.3090 24° Northeast  Level Estimated
06:04PM 28.4294 -81.3090 24° Northeast  Level Estimated
06:05PM 28.4294 -81.3090 24° Northeast  Level Estimated